CheckWX is a tool to help pilots better visualize weather data.  It is not intended as a substitute for an official pre-flight weather briefing.

12:26:04 UTC

EGUN TAF
RAF Mildenhall Airport
Mildenhall, United Kingdom
TAF EGUN 201210Z 2012/2118 27015KT 9999 FEW025 QNH3017INS BECMG 2016/2017 20006KT 9999 SCT080 QNH3019INS BECMG 2107/2108 21010G15KT 9999 BKN035 QNH3021INS TX20/2112Z TN12/2105Z

Aug-20@
12:00 UTC

Aug-20 @ 12:00 UTC

Aug-20@
16:00 UTC

Aug-20 @ 16:00 UTC

TAF EGUN 201210Z 2012/2118 27015KT 9999 FEW025 QNH3017INS
Wind
  • 270° at 15 KTS
Cloud Levels
  • Few at 2,500' AGL

Aug-20@
16:00 UTC

Aug-20 @ 16:00 UTC

Aug-21@
07:00 UTC

Aug-21 @ 07:00 UTC

BECMG 2016/2017 20006KT 9999 SCT080 QNH3019INS

Becoming

Becoming Conditions expected by Tue, Aug 20, 2019 @ 17:00 UTC

Wind
  • 200° at 6 KTS
Cloud Levels
  • Scattered at 8,000' AGL

Aug-21@
07:00 UTC

Aug-21 @ 07:00 UTC

Aug-21@
18:00 UTC

Aug-21 @ 18:00 UTC

BECMG 2107/2108 21010G15KT 9999 BKN035 QNH3021INS TX20/2112Z TN12/2105Z

Becoming

Becoming Conditions expected by Wed, Aug 21, 2019 @ 08:00 UTC

Wind
  • 210° at 10 KTS
  • {Gusting to 15 KTS
Cloud Levels
  • Broken at 3,500' AGL